sensor_id;sensor_type;location;lat;lon;timestamp;pressure;altitude;pressure_sealevel;temperature
39959;BMP280;25639;53.634;9.880;2023-03-04T00:00:29;150651.00;;;-6.97
39959;BMP280;25639;53.634;9.880;2023-03-04T00:02:55;150644.69;;;-7.00
39959;BMP280;25639;53.634;9.880;2023-03-04T00:05:20;150662.31;;;-6.93
39959;BMP280;25639;53.634;9.880;2023-03-04T00:07:45;150642.19;;;-7.01
39959;BMP280;25639;53.634;9.880;2023-03-04T00:10:10;150652.25;;;-6.97
39959;BMP280;25639;53.634;9.880;2023-03-04T00:12:36;150645.94;;;-6.99
39959;BMP280;25639;53.634;9.880;2023-03-04T00:15:01;150659.81;;;-6.94
39959;BMP280;25639;53.634;9.880;2023-03-04T00:17:27;150657.28;;;-6.95
39959;BMP280;25639;53.634;9.880;2023-03-04T00:19:54;150649.72;;;-6.98
39959;BMP280;25639;53.634;9.880;2023-03-04T00:22:20;150653.50;;;-6.96
39959;BMP280;25639;53.634;9.880;2023-03-04T00:24:45;150649.72;;;-6.98
39959;BMP280;25639;53.634;9.880;2023-03-04T00:27:10;150654.72;;;-6.96
39959;BMP280;25639;53.634;9.880;2023-03-04T00:29:36;150663.56;;;-6.92
39959;BMP280;25639;53.634;9.880;2023-03-04T00:32:01;150654.72;;;-6.96
39959;BMP280;25639;53.634;9.880;2023-03-04T00:34:26;150661.06;;;-6.93
39959;BMP280;25639;53.634;9.880;2023-03-04T00:36:53;150669.88;;;-6.90
39959;BMP280;25639;53.634;9.880;2023-03-04T00:39:18;150671.13;;;-6.89
39959;BMP280;25639;53.634;9.880;2023-03-04T00:41:44;150678.69;;;-6.86
39959;BMP280;25639;53.634;9.880;2023-03-04T00:44:09;150674.91;;;-6.87
39959;BMP280;25639;53.634;9.880;2023-03-04T00:46:34;150673.66;;;-6.88
39959;BMP280;25639;53.634;9.880;2023-03-04T00:48:59;150678.69;;;-6.86
39959;BMP280;25639;53.634;9.880;2023-03-04T00:51:25;150676.16;;;-6.87
39959;BMP280;25639;53.634;9.880;2023-03-04T00:53:50;150678.69;;;-6.86
39959;BMP280;25639;53.634;9.880;2023-03-04T00:56:16;150693.78;;;-6.80
39959;BMP280;25639;53.634;9.880;2023-03-04T00:58:41;150681.16;;;-6.85
39959;BMP280;25639;53.634;9.880;2023-03-04T01:01:07;150673.66;;;-6.88
39959;BMP280;25639;53.634;9.880;2023-03-04T01:03:32;150677.44;;;-6.86
39959;BMP280;25639;53.634;9.880;2023-03-04T01:05:58;150676.16;;;-6.87
39959;BMP280;25639;53.634;9.880;2023-03-04T01:08:25;150668.63;;;-6.90
39959;BMP280;25639;53.634;9.880;2023-03-04T01:10:51;150668.63;;;-6.90
39959;BMP280;25639;53.634;9.880;2023-03-04T01:13:16;150674.91;;;-6.87
39959;BMP280;25639;53.634;9.880;2023-03-04T01:15:42;150684.97;;;-6.83
39959;BMP280;25639;53.634;9.880;2023-03-04T01:18:07;150688.75;;;-6.82
39959;BMP280;25639;53.634;9.880;2023-03-04T01:20:32;150658.53;;;-6.94
39959;BMP280;25639;53.634;9.880;2023-03-04T01:22:58;150656.03;;;-6.95
39959;BMP280;25639;53.634;9.880;2023-03-04T01:25:23;150658.53;;;-6.94
39959;BMP280;25639;53.634;9.880;2023-03-04T01:27:48;150676.16;;;-6.87
39959;BMP280;25639;53.634;9.880;2023-03-04T01:30:13;150682.47;;;-6.84
39959;BMP280;25639;53.634;9.880;2023-03-04T01:32:39;150684.97;;;-6.83
39959;BMP280;25639;53.634;9.880;2023-03-04T01:35:04;150674.91;;;-6.87
39959;BMP280;25639;53.634;9.880;2023-03-04T01:37:30;150673.66;;;-6.88
39959;BMP280;25639;53.634;9.880;2023-03-04T01:39:55;150681.16;;;-6.85
39959;BMP280;25639;53.634;9.880;2023-03-04T01:42:22;150678.69;;;-6.86
39959;BMP280;25639;53.634;9.880;2023-03-04T01:44:50;150678.69;;;-6.86
39959;BMP280;25639;53.634;9.880;2023-03-04T01:47:16;150682.47;;;-6.84
39959;BMP280;25639;53.634;9.880;2023-03-04T01:49:42;150657.28;;;-6.95
39959;BMP280;25639;53.634;9.880;2023-03-04T01:52:11;150672.38;;;-6.88
39959;BMP280;25639;53.634;9.880;2023-03-04T01:54:37;150662.31;;;-6.93
39959;BMP280;25639;53.634;9.880;2023-03-04T01:57:12;150658.53;;;-6.94
39959;BMP280;25639;53.634;9.880;2023-03-04T01:59:40;150663.56;;;-6.92
39959;BMP280;25639;53.634;9.880;2023-03-04T02:02:05;150663.56;;;-6.92
39959;BMP280;25639;53.634;9.880;2023-03-04T02:04:32;150674.91;;;-6.87
39959;BMP280;25639;53.634;9.880;2023-03-04T02:06:59;150684.97;;;-6.83
39959;BMP280;25639;53.634;9.880;2023-03-04T02:09:25;150678.69;;;-6.86
39959;BMP280;25639;53.634;9.880;2023-03-04T02:11:51;150691.28;;;-6.81
39959;BMP280;25639;53.634;9.880;2023-03-04T02:14:18;150683.72;;;-6.84
39959;BMP280;25639;53.634;9.880;2023-03-04T02:16:44;150681.16;;;-6.85
39959;BMP280;25639;53.634;9.880;2023-03-04T02:19:22;150692.53;;;-6.80
39959;BMP280;25639;53.634;9.880;2023-03-04T02:21:52;150706.38;;;-6.75
39959;BMP280;25639;53.634;9.880;2023-03-04T02:24:44;150692.53;;;-6.80
39959;BMP280;25639;53.634;9.880;2023-03-04T02:27:11;150677.44;;;-6.86
39959;BMP280;25639;53.634;9.880;2023-03-04T02:29:36;150681.16;;;-6.85
39959;BMP280;25639;53.634;9.880;2023-03-04T02:32:02;150692.53;;;-6.80
39959;BMP280;25639;53.634;9.880;2023-03-04T02:34:30;150697.56;;;-6.78
39959;BMP280;25639;53.634;9.880;2023-03-04T02:36:57;150684.97;;;-6.83
39959;BMP280;25639;53.634;9.880;2023-03-04T02:39:34;150682.47;;;-6.84
39959;BMP280;25639;53.634;9.880;2023-03-04T02:42:01;150706.38;;;-6.75
39959;BMP280;25639;53.634;9.880;2023-03-04T02:44:29;150673.66;;;-6.88
39959;BMP280;25639;53.634;9.880;2023-03-04T02:46:56;150700.09;;;-6.77
39959;BMP280;25639;53.634;9.880;2023-03-04T02:49:23;150690.03;;;-6.81
39959;BMP280;25639;53.634;9.880;2023-03-04T02:51:58;150688.75;;;-6.82
39959;BMP280;25639;53.634;9.880;2023-03-04T02:54:24;150681.16;;;-6.85
39959;BMP280;25639;53.634;9.880;2023-03-04T02:56:53;150683.72;;;-6.84
39959;BMP280;25639;53.634;9.880;2023-03-04T02:59:20;150682.47;;;-6.84
39959;BMP280;25639;53.634;9.880;2023-03-04T03:01:46;150683.72;;;-6.84
39959;BMP280;25639;53.634;9.880;2023-03-04T03:04:12;150684.97;;;-6.83
39959;BMP280;25639;53.634;9.880;2023-03-04T03:06:44;150690.03;;;-6.81
39959;BMP280;25639;53.634;9.880;2023-03-04T03:09:09;150692.53;;;-6.80
39959;BMP280;25639;53.634;9.880;2023-03-04T03:11:35;150703.88;;;-6.76
39959;BMP280;25639;53.634;9.880;2023-03-04T03:14:00;150712.69;;;-6.72
39959;BMP280;25639;53.634;9.880;2023-03-04T03:16:25;150698.84;;;-6.78
39959;BMP280;25639;53.634;9.880;2023-03-04T03:18:51;150715.19;;;-6.71
39959;BMP280;25639;53.634;9.880;2023-03-04T03:21:16;150726.53;;;-6.66
39959;BMP280;25639;53.634;9.880;2023-03-04T03:23:42;150701.34;;;-6.77
39959;BMP280;25639;53.634;9.880;2023-03-04T03:26:07;150715.19;;;-6.71
39959;BMP280;25639;53.634;9.880;2023-03-04T03:28:33;150708.91;;;-6.74
39959;BMP280;25639;53.634;9.880;2023-03-04T03:30:58;150688.75;;;-6.82
39959;BMP280;25639;53.634;9.880;2023-03-04T03:33:23;150681.16;;;-6.85
39959;BMP280;25639;53.634;9.880;2023-03-04T03:35:48;150696.31;;;-6.79
39959;BMP280;25639;53.634;9.880;2023-03-04T03:38:14;150698.84;;;-6.78
39959;BMP280;25639;53.634;9.880;2023-03-04T03:40:39;150671.13;;;-6.89
39959;BMP280;25639;53.634;9.880;2023-03-04T03:43:04;150676.16;;;-6.87
39959;BMP280;25639;53.634;9.880;2023-03-04T03:45:30;150663.56;;;-6.92
39959;BMP280;25639;53.634;9.880;2023-03-04T03:47:55;150669.88;;;-6.90
39959;BMP280;25639;53.634;9.880;2023-03-04T03:50:20;150649.72;;;-6.98
39959;BMP280;25639;53.634;9.880;2023-03-04T03:52:46;150657.28;;;-6.95
39959;BMP280;25639;53.634;9.880;2023-03-04T03:55:11;150658.53;;;-6.94
39959;BMP280;25639;53.634;9.880;2023-03-04T03:57:36;150663.56;;;-6.92
39959;BMP280;25639;53.634;9.880;2023-03-04T04:00:03;150668.63;;;-6.90
39959;BMP280;25639;53.634;9.880;2023-03-04T04:02:29;150663.56;;;-6.92
39959;BMP280;25639;53.634;9.880;2023-03-04T04:04:54;150669.88;;;-6.90
39959;BMP280;25639;53.634;9.880;2023-03-04T04:07:19;150672.38;;;-6.88
39959;BMP280;25639;53.634;9.880;2023-03-04T04:09:44;150663.56;;;-6.92
39959;BMP280;25639;53.634;9.880;2023-03-04T04:12:12;150676.16;;;-6.87
39959;BMP280;25639;53.634;9.880;2023-03-04T04:14:38;150674.91;;;-6.87
39959;BMP280;25639;53.634;9.880;2023-03-04T04:17:04;150674.91;;;-6.87
39959;BMP280;25639;53.634;9.880;2023-03-04T04:19:29;150677.44;;;-6.86
39959;BMP280;25639;53.634;9.880;2023-03-04T04:21:54;150687.50;;;-6.82
39959;BMP280;25639;53.634;9.880;2023-03-04T04:24:20;150721.50;;;-6.68
39959;BMP280;25639;53.634;9.880;2023-03-04T04:26:45;150701.34;;;-6.77
39959;BMP280;25639;53.634;9.880;2023-03-04T04:29:13;150711.41;;;-6.73
39959;BMP280;25639;53.634;9.880;2023-03-04T04:31:39;150708.91;;;-6.74
39959;BMP280;25639;53.634;9.880;2023-03-04T04:34:04;150736.59;;;-6.62
39959;BMP280;25639;53.634;9.880;2023-03-04T04:36:30;150718.97;;;-6.69
39959;BMP280;25639;53.634;9.880;2023-03-04T04:38:55;150730.31;;;-6.65
39959;BMP280;25639;53.634;9.880;2023-03-04T04:41:24;150739.13;;;-6.61
39959;BMP280;25639;53.634;9.880;2023-03-04T04:43:49;150734.09;;;-6.63
39959;BMP280;25639;53.634;9.880;2023-03-04T04:46:15;150721.50;;;-6.68
39959;BMP280;25639;53.634;9.880;2023-03-04T04:48:41;150727.78;;;-6.66
39959;BMP280;25639;53.634;9.880;2023-03-04T04:51:06;150720.22;;;-6.69
39959;BMP280;25639;53.634;9.880;2023-03-04T04:53:32;150715.19;;;-6.71
39959;BMP280;25639;53.634;9.880;2023-03-04T04:55:57;150727.78;;;-6.66
39959;BMP280;25639;53.634;9.880;2023-03-04T04:58:22;150718.97;;;-6.69
39959;BMP280;25639;53.634;9.880;2023-03-04T05:00:48;150725.28;;;-6.67
39959;BMP280;25639;53.634;9.880;2023-03-04T05:03:13;150718.97;;;-6.69
39959;BMP280;25639;53.634;9.880;2023-03-04T05:05:38;150718.97;;;-6.69
39959;BMP280;25639;53.634;9.880;2023-03-04T05:08:04;150690.03;;;-6.81
39959;BMP280;25639;53.634;9.880;2023-03-04T05:10:29;150673.66;;;-6.88
39959;BMP280;25639;53.634;9.880;2023-03-04T05:12:55;150669.88;;;-6.90
39959;BMP280;25639;53.634;9.880;2023-03-04T05:15:20;150656.03;;;-6.95
39959;BMP280;25639;53.634;9.880;2023-03-04T05:17:45;150661.06;;;-6.93
39959;BMP280;25639;53.634;9.880;2023-03-04T05:20:11;150653.50;;;-6.96
39959;BMP280;25639;53.634;9.880;2023-03-04T05:22:36;150633.38;;;-7.04
39959;BMP280;25639;53.634;9.880;2023-03-04T05:25:02;150629.59;;;-7.06
39959;BMP280;25639;53.634;9.880;2023-03-04T05:27:27;150639.66;;;-7.02
39959;BMP280;25639;53.634;9.880;2023-03-04T05:29:52;150644.69;;;-7.00
39959;BMP280;25639;53.634;9.880;2023-03-04T05:32:20;150648.47;;;-6.98
39959;BMP280;25639;53.634;9.880;2023-03-04T05:34:45;150624.56;;;-7.08
39959;BMP280;25639;53.634;9.880;2023-03-04T05:37:10;150615.75;;;-7.12
39959;BMP280;25639;53.634;9.880;2023-03-04T05:39:36;150624.56;;;-7.08
39959;BMP280;25639;53.634;9.880;2023-03-04T05:42:01;150644.69;;;-7.00
39959;BMP280;25639;53.634;9.880;2023-03-04T05:44:26;150652.25;;;-6.97
39959;BMP280;25639;53.634;9.880;2023-03-04T05:46:51;150648.47;;;-6.98
39959;BMP280;25639;53.634;9.880;2023-03-04T05:49:17;150651.00;;;-6.97
39959;BMP280;25639;53.634;9.880;2023-03-04T05:51:42;150648.47;;;-6.98
39959;BMP280;25639;53.634;9.880;2023-03-04T05:54:07;150656.03;;;-6.95
39959;BMP280;25639;53.634;9.880;2023-03-04T05:56:33;150647.22;;;-6.99
39959;BMP280;25639;53.634;9.880;2023-03-04T05:58:58;150653.50;;;-6.96
39959;BMP280;25639;53.634;9.880;2023-03-04T06:01:24;150656.03;;;-6.95
39959;BMP280;25639;53.634;9.880;2023-03-04T06:03:49;150663.56;;;-6.92
39959;BMP280;25639;53.634;9.880;2023-03-04T06:06:15;150658.53;;;-6.94
39959;BMP280;25639;53.634;9.880;2023-03-04T06:08:40;150652.25;;;-6.97
39959;BMP280;25639;53.634;9.880;2023-03-04T06:11:06;150659.81;;;-6.94
39959;BMP280;25639;53.634;9.880;2023-03-04T06:13:31;150634.63;;;-7.04
39959;BMP280;25639;53.634;9.880;2023-03-04T06:15:57;150618.25;;;-7.11
39959;BMP280;25639;53.634;9.880;2023-03-04T06:18:24;150613.22;;;-7.13
39959;BMP280;25639;53.634;9.880;2023-03-04T06:20:49;150614.47;;;-7.12
39959;BMP280;25639;53.634;9.880;2023-03-04T06:23:15;150598.13;;;-7.19
39959;BMP280;25639;53.634;9.880;2023-03-04T06:25:40;150608.19;;;-7.15
39959;BMP280;25639;53.634;9.880;2023-03-04T06:28:05;150584.25;;;-7.24
39959;BMP280;25639;53.634;9.880;2023-03-04T06:30:31;150590.56;;;-7.22
39959;BMP280;25639;53.634;9.880;2023-03-04T06:32:56;150586.78;;;-7.23
39959;BMP280;25639;53.634;9.880;2023-03-04T06:35:21;150556.59;;;-7.36
39959;BMP280;25639;53.634;9.880;2023-03-04T06:37:47;150572.94;;;-7.29
39959;BMP280;25639;53.634;9.880;2023-03-04T06:40:12;150574.19;;;-7.29
39959;BMP280;25639;53.634;9.880;2023-03-04T06:42:38;150560.38;;;-7.34
39959;BMP280;25639;53.634;9.880;2023-03-04T06:45:05;150565.38;;;-7.32
39959;BMP280;25639;53.634;9.880;2023-03-04T06:47:30;150557.81;;;-7.35
39959;BMP280;25639;53.634;9.880;2023-03-04T06:49:55;150564.13;;;-7.33
39959;BMP280;25639;53.634;9.880;2023-03-04T06:52:21;150559.13;;;-7.35
39959;BMP280;25639;53.634;9.880;2023-03-04T06:54:46;150560.38;;;-7.34
39959;BMP280;25639;53.634;9.880;2023-03-04T06:57:11;150571.72;;;-7.30
39959;BMP280;25639;53.634;9.880;2023-03-04T06:59:38;150575.44;;;-7.28
39959;BMP280;25639;53.634;9.880;2023-03-04T07:02:03;150560.38;;;-7.34
39959;BMP280;25639;53.634;9.880;2023-03-04T07:04:28;150572.94;;;-7.29
39959;BMP280;25639;53.634;9.880;2023-03-04T07:06:53;150557.81;;;-7.35
39959;BMP280;25639;53.634;9.880;2023-03-04T07:09:19;150552.78;;;-7.37
39959;BMP280;25639;53.634;9.880;2023-03-04T07:11:44;150560.38;;;-7.34
39959;BMP280;25639;53.634;9.880;2023-03-04T07:14:10;150579.22;;;-7.26
39959;BMP280;25639;53.634;9.880;2023-03-04T07:16:35;150555.34;;;-7.36
39959;BMP280;25639;53.634;9.880;2023-03-04T07:19:00;150561.59;;;-7.34
39959;BMP280;25639;53.634;9.880;2023-03-04T07:21:26;150577.97;;;-7.27
39959;BMP280;25639;53.634;9.880;2023-03-04T07:23:51;150581.75;;;-7.25
39959;BMP280;25639;53.634;9.880;2023-03-04T07:26:17;150575.44;;;-7.28
39959;BMP280;25639;53.634;9.880;2023-03-04T07:28:42;150579.22;;;-7.26
39959;BMP280;25639;53.634;9.880;2023-03-04T07:31:20;150555.34;;;-7.36
39959;BMP280;25639;53.634;9.880;2023-03-04T07:33:45;150572.94;;;-7.29
39959;BMP280;25639;53.634;9.880;2023-03-04T07:36:11;150579.22;;;-7.26
39959;BMP280;25639;53.634;9.880;2023-03-04T07:38:41;150564.13;;;-7.33
39959;BMP280;25639;53.634;9.880;2023-03-04T07:41:06;150569.16;;;-7.31
39959;BMP280;25639;53.634;9.880;2023-03-04T07:43:31;150567.94;;;-7.31
39959;BMP280;25639;53.634;9.880;2023-03-04T07:45:58;150574.19;;;-7.29
39959;BMP280;25639;53.634;9.880;2023-03-04T07:48:24;150542.75;;;-7.41
39959;BMP280;25639;53.634;9.880;2023-03-04T07:50:50;150577.97;;;-7.27
39959;BMP280;25639;53.634;9.880;2023-03-04T07:53:15;150559.13;;;-7.35
39959;BMP280;25639;53.634;9.880;2023-03-04T07:55:40;150576.72;;;-7.28
39959;BMP280;25639;53.634;9.880;2023-03-04T07:58:05;150550.31;;;-7.38
39959;BMP280;25639;53.634;9.880;2023-03-04T08:00:31;150576.72;;;-7.28
39959;BMP280;25639;53.634;9.880;2023-03-04T08:02:56;150581.75;;;-7.25
39959;BMP280;25639;53.634;9.880;2023-03-04T08:05:21;150583.00;;;-7.25
39959;BMP280;25639;53.634;9.880;2023-03-04T08:07:47;150565.38;;;-7.32
39959;BMP280;25639;53.634;9.880;2023-03-04T08:10:12;150540.22;;;-7.42
39959;BMP280;25639;53.634;9.880;2023-03-04T08:12:37;150551.56;;;-7.38
39959;BMP280;25639;53.634;9.880;2023-03-04T08:15:03;150581.75;;;-7.25
39959;BMP280;25639;53.634;9.880;2023-03-04T08:17:28;150569.16;;;-7.31
39959;BMP280;25639;53.634;9.880;2023-03-04T08:19:54;150562.91;;;-7.33
39959;BMP280;25639;53.634;9.880;2023-03-04T08:22:19;150579.22;;;-7.26
39959;BMP280;25639;53.634;9.880;2023-03-04T08:24:45;150572.94;;;-7.29
39959;BMP280;25639;53.634;9.880;2023-03-04T08:27:10;150549.00;;;-7.39
39959;BMP280;25639;53.634;9.880;2023-03-04T08:29:35;150560.38;;;-7.34
39959;BMP280;25639;53.634;9.880;2023-03-04T08:32:00;150589.31;;;-7.22
39959;BMP280;25639;53.634;9.880;2023-03-04T08:34:27;150577.97;;;-7.27
39959;BMP280;25639;53.634;9.880;2023-03-04T08:36:52;150567.94;;;-7.31
39959;BMP280;25639;53.634;9.880;2023-03-04T08:39:18;150572.94;;;-7.29
39959;BMP280;25639;53.634;9.880;2023-03-04T08:41:44;150590.56;;;-7.22
39959;BMP280;25639;53.634;9.880;2023-03-04T08:44:10;150570.41;;;-7.30
39959;BMP280;25639;53.634;9.880;2023-03-04T08:46:37;150586.78;;;-7.23
39959;BMP280;25639;53.634;9.880;2023-03-04T08:49:03;150598.13;;;-7.19
39959;BMP280;25639;53.634;9.880;2023-03-04T08:51:29;150605.66;;;-7.16
39959;BMP280;25639;53.634;9.880;2023-03-04T08:53:54;150610.69;;;-7.14
39959;BMP280;25639;53.634;9.880;2023-03-04T08:56:19;150603.16;;;-7.17
39959;BMP280;25639;53.634;9.880;2023-03-04T08:58:45;150604.41;;;-7.16
39959;BMP280;25639;53.634;9.880;2023-03-04T09:01:12;150614.47;;;-7.12
39959;BMP280;25639;53.634;9.880;2023-03-04T09:03:38;150572.94;;;-7.29
39959;BMP280;25639;53.634;9.880;2023-03-04T09:06:04;150571.72;;;-7.30
39959;BMP280;25639;53.634;9.880;2023-03-04T09:08:30;150586.78;;;-7.23
39959;BMP280;25639;53.634;9.880;2023-03-04T09:10:55;150590.56;;;-7.22
39959;BMP280;25639;53.634;9.880;2023-03-04T09:13:22;150609.44;;;-7.14
39959;BMP280;25639;53.634;9.880;2023-03-04T09:15:49;150613.22;;;-7.13
39959;BMP280;25639;53.634;9.880;2023-03-04T09:18:17;150608.19;;;-7.15
39959;BMP280;25639;53.634;9.880;2023-03-04T09:20:43;150605.66;;;-7.16
39959;BMP280;25639;53.634;9.880;2023-03-04T09:23:08;150623.28;;;-7.09
39959;BMP280;25639;53.634;9.880;2023-03-04T09:25:35;150615.75;;;-7.12
39959;BMP280;25639;53.634;9.880;2023-03-04T09:28:01;150634.63;;;-7.04
39959;BMP280;25639;53.634;9.880;2023-03-04T09:30:26;150649.72;;;-6.98
39959;BMP280;25639;53.634;9.880;2023-03-04T09:32:52;150643.44;;;-7.00
39959;BMP280;25639;53.634;9.880;2023-03-04T09:35:18;150681.16;;;-6.85
39959;BMP280;25639;53.634;9.880;2023-03-04T09:37:43;150683.72;;;-6.84
39959;BMP280;25639;53.634;9.880;2023-03-04T09:40:17;150696.31;;;-6.79
39959;BMP280;25639;53.634;9.880;2023-03-04T09:42:56;150706.38;;;-6.75
39959;BMP280;25639;53.634;9.880;2023-03-04T09:45:28;150658.53;;;-6.94
39959;BMP280;25639;53.634;9.880;2023-03-04T09:47:57;150649.72;;;-6.98
39959;BMP280;25639;53.634;9.880;2023-03-04T09:50:23;150679.94;;;-6.85
39959;BMP280;25639;53.634;9.880;2023-03-04T09:55:39;150739.13;;;-6.61
39959;BMP280;25639;53.634;9.880;2023-03-04T09:58:40;150701.34;;;-6.77
39959;BMP280;25639;53.634;9.880;2023-03-04T10:01:16;150667.34;;;-6.91
39959;BMP280;25639;53.634;9.880;2023-03-04T10:03:47;150674.91;;;-6.87
39959;BMP280;25639;53.634;9.880;2023-03-04T10:06:17;150706.38;;;-6.75
39959;BMP280;25639;53.634;9.880;2023-03-04T10:14:24;150746.66;;;-6.58
39959;BMP280;25639;53.634;9.880;2023-03-04T10:16:57;150727.78;;;-6.66
39959;BMP280;25639;53.634;9.880;2023-03-04T10:22:19;150745.41;;;-6.59
39959;BMP280;25639;53.634;9.880;2023-03-04T10:24:47;150744.16;;;-6.59
39959;BMP280;25639;53.634;9.880;2023-03-04T10:27:16;150740.38;;;-6.61
39959;BMP280;25639;53.634;9.880;2023-03-04T10:29:43;150776.88;;;-6.46
39959;BMP280;25639;53.634;9.880;2023-03-04T10:32:13;150802.09;;;-6.36
39959;BMP280;25639;53.634;9.880;2023-03-04T10:34:40;150807.13;;;-6.34
39959;BMP280;25639;53.634;9.880;2023-03-04T10:37:06;150788.22;;;-6.41
39959;BMP280;25639;53.634;9.880;2023-03-04T10:42:09;150776.88;;;-6.46
39959;BMP280;25639;53.634;9.880;2023-03-04T10:44:52;150788.22;;;-6.41
39959;BMP280;25639;53.634;9.880;2023-03-04T10:47:18;150802.09;;;-6.36
39959;BMP280;25639;53.634;9.880;2023-03-04T10:49:58;150846.16;;;-6.18
39959;BMP280;25639;53.634;9.880;2023-03-04T10:52:31;150901.56;;;-5.95
39959;BMP280;25639;53.634;9.880;2023-03-04T10:55:02;150901.56;;;-5.95
39959;BMP280;25639;53.634;9.880;2023-03-04T10:57:34;150886.47;;;-6.01
39959;BMP280;25639;53.634;9.880;2023-03-04T11:02:42;150844.91;;;-6.18
39959;BMP280;25639;53.634;9.880;2023-03-04T11:07:42;150910.38;;;-5.91
39959;BMP280;25639;53.634;9.880;2023-03-04T11:10:23;150900.31;;;-5.96
39959;BMP280;25639;53.634;9.880;2023-03-04T11:12:51;150920.44;;;-5.87
39959;BMP280;25639;53.634;9.880;2023-03-04T11:15:22;150911.63;;;-5.91
39959;BMP280;25639;53.634;9.880;2023-03-04T11:17:54;150933.06;;;-5.82
39959;BMP280;25639;53.634;9.880;2023-03-04T11:22:53;150920.44;;;-5.87
39959;BMP280;25639;53.634;9.880;2023-03-04T11:25:34;150914.16;;;-5.90
39959;BMP280;25639;53.634;9.880;2023-03-04T11:28:23;150934.31;;;-5.82
39959;BMP280;25639;53.634;9.880;2023-03-04T11:30:57;150907.84;;;-5.93
39959;BMP280;25639;53.634;9.880;2023-03-04T11:33:47;150876.41;;;-6.05
39959;BMP280;25639;53.634;9.880;2023-03-04T11:36:30;150887.75;;;-6.01
39959;BMP280;25639;53.634;9.880;2023-03-04T11:38:57;150857.53;;;-6.13
39959;BMP280;25639;53.634;9.880;2023-03-04T11:41:32;150899.06;;;-5.96
39959;BMP280;25639;53.634;9.880;2023-03-04T11:43:59;150876.41;;;-6.05
39959;BMP280;25639;53.634;9.880;2023-03-04T11:49:44;150925.47;;;-5.85
39959;BMP280;25639;53.634;9.880;2023-03-04T11:57:55;151030.09;;;-5.43
39959;BMP280;25639;53.634;9.880;2023-03-04T12:03:26;151026.31;;;-5.44
39959;BMP280;25639;53.634;9.880;2023-03-04T12:09:19;150958.28;;;-5.72
39959;BMP280;25639;53.634;9.880;2023-03-04T12:12:03;150970.88;;;-5.67
39959;BMP280;25639;53.634;9.880;2023-03-04T12:20:52;150991.00;;;-5.59
39959;BMP280;25639;53.634;9.880;2023-03-04T12:23:25;150991.00;;;-5.59
39959;BMP280;25639;53.634;9.880;2023-03-04T12:29:08;150987.22;;;-5.60
39959;BMP280;25639;53.634;9.880;2023-03-04T12:31:39;151002.38;;;-5.54
39959;BMP280;25639;53.634;9.880;2023-03-04T12:34:31;150907.84;;;-5.93
39959;BMP280;25639;53.634;9.880;2023-03-04T12:37:28;150865.03;;;-6.10
39959;BMP280;25639;53.634;9.880;2023-03-04T12:43:26;150931.81;;;-5.83
39959;BMP280;25639;53.634;9.880;2023-03-04T12:46:01;150954.47;;;-5.73
39959;BMP280;25639;53.634;9.880;2023-03-04T12:51:05;150963.31;;;-5.70
39959;BMP280;25639;53.634;9.880;2023-03-04T12:53:39;150959.50;;;-5.71
39959;BMP280;25639;53.634;9.880;2023-03-04T12:56:20;150972.13;;;-5.66
39959;BMP280;25639;53.634;9.880;2023-03-04T12:58:46;150950.69;;;-5.75
39959;BMP280;25639;53.634;9.880;2023-03-04T13:01:23;150925.47;;;-5.85
39959;BMP280;25639;53.634;9.880;2023-03-04T13:04:22;150944.41;;;-5.78
39959;BMP280;25639;53.634;9.880;2023-03-04T13:09:44;151013.69;;;-5.49
39959;BMP280;25639;53.634;9.880;2023-03-04T13:12:15;151042.69;;;-5.38
39959;BMP280;25639;53.634;9.880;2023-03-04T13:15:46;151072.97;;;-5.25
39959;BMP280;25639;53.634;9.880;2023-03-04T13:20:42;150973.38;;;-5.66
39959;BMP280;25639;53.634;9.880;2023-03-04T13:51:42;150984.75;;;-5.61
39959;BMP280;25639;53.634;9.880;2023-03-04T13:54:31;150963.31;;;-5.70
39959;BMP280;25639;53.634;9.880;2023-03-04T13:59:37;150933.06;;;-5.82
39959;BMP280;25639;53.634;9.880;2023-03-04T14:02:16;150967.09;;;-5.68
39959;BMP280;25639;53.634;9.880;2023-03-04T14:12:38;150953.25;;;-5.74
39959;BMP280;25639;53.634;9.880;2023-03-04T14:15:20;150959.50;;;-5.71
39959;BMP280;25639;53.634;9.880;2023-03-04T14:17:48;150940.63;;;-5.79
39959;BMP280;25639;53.634;9.880;2023-03-04T14:20:28;150905.34;;;-5.94
39959;BMP280;25639;53.634;9.880;2023-03-04T14:22:55;150889.00;;;-6.00
39959;BMP280;25639;53.634;9.880;2023-03-04T14:25:25;150892.78;;;-5.99
39959;BMP280;25639;53.634;9.880;2023-03-04T14:28:19;150886.47;;;-6.01
39959;BMP280;25639;53.634;9.880;2023-03-04T14:30:53;150856.22;;;-6.14
39959;BMP280;25639;53.634;9.880;2023-03-04T14:33:22;150843.66;;;-6.19
39959;BMP280;25639;53.634;9.880;2023-03-04T14:35:50;150872.63;;;-6.07
39959;BMP280;25639;53.634;9.880;2023-03-04T14:38:26;150862.56;;;-6.11
39959;BMP280;25639;53.634;9.880;2023-03-04T14:41:15;150812.13;;;-6.32
39959;BMP280;25639;53.634;9.880;2023-03-04T14:43:50;150784.44;;;-6.43
39959;BMP280;25639;53.634;9.880;2023-03-04T14:46:18;150785.69;;;-6.42
39959;BMP280;25639;53.634;9.880;2023-03-04T14:48:49;150770.59;;;-6.48
39959;BMP280;25639;53.634;9.880;2023-03-04T14:51:41;150751.72;;;-6.56
39959;BMP280;25639;53.634;9.880;2023-03-04T14:54:28;150775.63;;;-6.46
39959;BMP280;25639;53.634;9.880;2023-03-04T14:56:54;150759.25;;;-6.53
39959;BMP280;25639;53.634;9.880;2023-03-04T14:59:31;150779.41;;;-6.45
39959;BMP280;25639;53.634;9.880;2023-03-04T15:04:47;150730.31;;;-6.65
39959;BMP280;25639;53.634;9.880;2023-03-04T15:07:15;150724.00;;;-6.67
39959;BMP280;25639;53.634;9.880;2023-03-04T15:09:49;150720.22;;;-6.69
39959;BMP280;25639;53.634;9.880;2023-03-04T15:12:21;150687.50;;;-6.82
39959;BMP280;25639;53.634;9.880;2023-03-04T15:14:50;150661.06;;;-6.93
39959;BMP280;25639;53.634;9.880;2023-03-04T15:17:37;150666.09;;;-6.91
39959;BMP280;25639;53.634;9.880;2023-03-04T15:25:05;150624.56;;;-7.08
39959;BMP280;25639;53.634;9.880;2023-03-04T15:27:30;150625.81;;;-7.07
39959;BMP280;25639;53.634;9.880;2023-03-04T15:29:57;150632.09;;;-7.05
39959;BMP280;25639;53.634;9.880;2023-03-04T15:32:25;150643.44;;;-7.00
39959;BMP280;25639;53.634;9.880;2023-03-04T15:34:50;150634.63;;;-7.04
39959;BMP280;25639;53.634;9.880;2023-03-04T15:37:19;150633.38;;;-7.04
39959;BMP280;25639;53.634;9.880;2023-03-04T15:39:45;150624.56;;;-7.08
39959;BMP280;25639;53.634;9.880;2023-03-04T15:42:12;150604.41;;;-7.16
39959;BMP280;25639;53.634;9.880;2023-03-04T15:44:38;150614.47;;;-7.12
39959;BMP280;25639;53.634;9.880;2023-03-04T15:47:03;150595.59;;;-7.20